メインページ
METAR-TAF:

METAR-TAF

空港 :

対馬空港

対馬, 日本

緯度: 34-17N, 経度: 129-20E, 海抜: 63m

現時点の気象観測

当レポートは1時間0分前の08:00(UTC)に作成
西の風 10kt、西/南西から北西の間で変化する
気温 8°C
湿度 49%
気圧 1025 hPa
視程10km以上
高度3500ftの雲はほとんどない
高度4500ftの千切れ雲あり

METAR: RJDT 130800Z 27010KT 250V320 9999 FEW035 BKN045 08/M02 Q1025

時間: 18:00 (09:00 UTC)


TAF: 見つかりません

4,000以上の空港の気象観測と天気予報(METAR報とTAF報)

利用可能な観測所は地図上に黄色い丸と赤い丸で示す。

丸の上にカーソルを重ねると観測所名を参照できる。

次にクリックすると気象観測と天気予報を参照できる。

マップの切り替え:黒色「×」印の緑ボタンをクリックして拡大、「-」印の緑ボタンをクリックして縮小、緑色の三角印をクリックして隣りの地図に切り替え


METAR-TAF: